sensor_id;sensor_type;location;lat;lon;timestamp;P1;durP1;ratioP1;P2;durP2;ratioP2
18677;SDS011;9469;51.114;13.914;2022-08-21T00:04:48;41.93;;;31.27;;
18677;SDS011;9469;51.114;13.914;2022-08-21T00:09:58;44.20;;;30.43;;
18677;SDS011;9469;51.114;13.914;2022-08-21T00:15:06;44.10;;;32.43;;
18677;SDS011;9469;51.114;13.914;2022-08-21T00:20:17;48.53;;;32.50;;
18677;SDS011;9469;51.114;13.914;2022-08-21T00:25:24;48.40;;;32.80;;
18677;SDS011;9469;51.114;13.914;2022-08-21T00:30:30;47.60;;;31.57;;
18677;SDS011;9469;51.114;13.914;2022-08-21T00:35:39;50.37;;;33.53;;
18677;SDS011;9469;51.114;13.914;2022-08-21T00:40:47;47.73;;;34.67;;
18677;SDS011;9469;51.114;13.914;2022-08-21T00:46:01;49.67;;;34.80;;
18677;SDS011;9469;51.114;13.914;2022-08-21T00:51:12;55.73;;;38.43;;
18677;SDS011;9469;51.114;13.914;2022-08-21T00:56:26;54.50;;;37.03;;
18677;SDS011;9469;51.114;13.914;2022-08-21T01:01:34;56.90;;;38.93;;
18677;SDS011;9469;51.114;13.914;2022-08-21T01:06:42;52.73;;;35.60;;
18677;SDS011;9469;51.114;13.914;2022-08-21T01:11:48;43.40;;;31.57;;
18677;SDS011;9469;51.114;13.914;2022-08-21T01:16:54;42.73;;;31.47;;
18677;SDS011;9469;51.114;13.914;2022-08-21T01:22:06;36.57;;;29.23;;
18677;SDS011;9469;51.114;13.914;2022-08-21T01:27:13;34.27;;;25.13;;
18677;SDS011;9469;51.114;13.914;2022-08-21T01:32:19;29.13;;;22.47;;
18677;SDS011;9469;51.114;13.914;2022-08-21T01:37:27;27.83;;;21.77;;
18677;SDS011;9469;51.114;13.914;2022-08-21T01:42:34;30.20;;;21.60;;
18677;SDS011;9469;51.114;13.914;2022-08-21T01:47:40;29.53;;;21.53;;
18677;SDS011;9469;51.114;13.914;2022-08-21T01:52:49;23.20;;;19.20;;
18677;SDS011;9469;51.114;13.914;2022-08-21T01:57:57;21.23;;;17.80;;
18677;SDS011;9469;51.114;13.914;2022-08-21T02:03:05;22.33;;;16.33;;
18677;SDS011;9469;51.114;13.914;2022-08-21T02:08:13;15.10;;;12.03;;
18677;SDS011;9469;51.114;13.914;2022-08-21T02:13:20;16.00;;;13.57;;
18677;SDS011;9469;51.114;13.914;2022-08-21T02:18:25;14.97;;;12.10;;
18677;SDS011;9469;51.114;13.914;2022-08-21T02:23:34;13.53;;;11.67;;
18677;SDS011;9469;51.114;13.914;2022-08-21T02:28:40;14.70;;;11.47;;
18677;SDS011;9469;51.114;13.914;2022-08-21T02:33:46;17.80;;;10.57;;
18677;SDS011;9469;51.114;13.914;2022-08-21T02:38:54;13.03;;;10.40;;
18677;SDS011;9469;51.114;13.914;2022-08-21T02:43:59;13.33;;;10.70;;
18677;SDS011;9469;51.114;13.914;2022-08-21T02:49:08;12.30;;;9.90;;
18677;SDS011;9469;51.114;13.914;2022-08-21T02:54:17;11.37;;;10.07;;
18677;SDS011;9469;51.114;13.914;2022-08-21T02:59:23;14.07;;;10.57;;
18677;SDS011;9469;51.114;13.914;2022-08-21T03:04:28;12.73;;;10.63;;
18677;SDS011;9469;51.114;13.914;2022-08-21T03:09:36;14.60;;;11.33;;
18677;SDS011;9469;51.114;13.914;2022-08-21T03:14:56;13.60;;;10.60;;
18677;SDS011;9469;51.114;13.914;2022-08-21T03:20:03;15.00;;;11.90;;
18677;SDS011;9469;51.114;13.914;2022-08-21T03:25:15;13.03;;;11.63;;
18677;SDS011;9469;51.114;13.914;2022-08-21T03:30:27;13.57;;;11.53;;
18677;SDS011;9469;51.114;13.914;2022-08-21T03:35:33;17.43;;;12.00;;
18677;SDS011;9469;51.114;13.914;2022-08-21T03:40:42;13.23;;;11.67;;
18677;SDS011;9469;51.114;13.914;2022-08-21T03:45:48;15.30;;;12.50;;
18677;SDS011;9469;51.114;13.914;2022-08-21T03:50:54;14.33;;;11.33;;
18677;SDS011;9469;51.114;13.914;2022-08-21T03:56:02;15.30;;;11.87;;
18677;SDS011;9469;51.114;13.914;2022-08-21T04:01:09;14.33;;;11.70;;
18677;SDS011;9469;51.114;13.914;2022-08-21T04:06:17;12.10;;;10.90;;
18677;SDS011;9469;51.114;13.914;2022-08-21T04:11:25;11.90;;;10.70;;
18677;SDS011;9469;51.114;13.914;2022-08-21T04:16:31;14.87;;;11.77;;
18677;SDS011;9469;51.114;13.914;2022-08-21T04:21:37;13.37;;;10.87;;
18677;SDS011;9469;51.114;13.914;2022-08-21T04:26:47;14.07;;;11.83;;
18677;SDS011;9469;51.114;13.914;2022-08-21T04:31:52;13.03;;;11.17;;
18677;SDS011;9469;51.114;13.914;2022-08-21T04:36:57;13.90;;;11.53;;
18677;SDS011;9469;51.114;13.914;2022-08-21T04:42:05;13.53;;;11.13;;
18677;SDS011;9469;51.114;13.914;2022-08-21T04:47:12;12.67;;;10.70;;
18677;SDS011;9469;51.114;13.914;2022-08-21T04:52:19;16.40;;;11.70;;
18677;SDS011;9469;51.114;13.914;2022-08-21T04:57:30;15.00;;;11.70;;
18677;SDS011;9469;51.114;13.914;2022-08-21T05:02:50;12.70;;;11.13;;
18677;SDS011;9469;51.114;13.914;2022-08-21T05:07:59;12.83;;;10.83;;
18677;SDS011;9469;51.114;13.914;2022-08-21T05:13:13;15.93;;;12.00;;
18677;SDS011;9469;51.114;13.914;2022-08-21T05:18:21;12.80;;;11.50;;
18677;SDS011;9469;51.114;13.914;2022-08-21T05:23:26;13.73;;;12.07;;
18677;SDS011;9469;51.114;13.914;2022-08-21T05:28:34;12.53;;;10.87;;
18677;SDS011;9469;51.114;13.914;2022-08-21T05:33:41;14.13;;;11.90;;
18677;SDS011;9469;51.114;13.914;2022-08-21T05:38:47;14.80;;;11.60;;
18677;SDS011;9469;51.114;13.914;2022-08-21T05:43:58;14.50;;;12.27;;
18677;SDS011;9469;51.114;13.914;2022-08-21T05:49:10;12.43;;;11.00;;
18677;SDS011;9469;51.114;13.914;2022-08-21T05:54:18;14.10;;;11.67;;
18677;SDS011;9469;51.114;13.914;2022-08-21T05:59:28;16.60;;;12.23;;
18677;SDS011;9469;51.114;13.914;2022-08-21T06:04:35;15.93;;;12.70;;
18677;SDS011;9469;51.114;13.914;2022-08-21T06:09:40;19.60;;;14.63;;
18677;SDS011;9469;51.114;13.914;2022-08-21T06:14:49;17.80;;;15.37;;
18677;SDS011;9469;51.114;13.914;2022-08-21T06:19:55;18.07;;;14.93;;
18677;SDS011;9469;51.114;13.914;2022-08-21T06:25:03;22.50;;;16.90;;
18677;SDS011;9469;51.114;13.914;2022-08-21T06:30:12;20.03;;;17.27;;
18677;SDS011;9469;51.114;13.914;2022-08-21T06:35:37;21.40;;;16.97;;
18677;SDS011;9469;51.114;13.914;2022-08-21T06:40:43;19.37;;;16.60;;
18677;SDS011;9469;51.114;13.914;2022-08-21T06:51:23;21.67;;;18.07;;
18677;SDS011;9469;51.114;13.914;2022-08-21T06:56:29;21.43;;;17.87;;
18677;SDS011;9469;51.114;13.914;2022-08-21T07:01:42;22.37;;;17.83;;
18677;SDS011;9469;51.114;13.914;2022-08-21T07:06:51;22.63;;;18.00;;
18677;SDS011;9469;51.114;13.914;2022-08-21T07:23:21;21.47;;;17.63;;
18677;SDS011;9469;51.114;13.914;2022-08-21T08:01:45;17.87;;;14.00;;
18677;SDS011;9469;51.114;13.914;2022-08-21T18:32:44;4.97;;;2.20;;
18677;SDS011;9469;51.114;13.914;2022-08-21T18:37:50;5.17;;;2.07;;
18677;SDS011;9469;51.114;13.914;2022-08-21T18:42:57;7.77;;;2.33;;
18677;SDS011;9469;51.114;13.914;2022-08-21T18:48:08;3.53;;;2.00;;
18677;SDS011;9469;51.114;13.914;2022-08-21T18:53:15;7.63;;;2.33;;
18677;SDS011;9469;51.114;13.914;2022-08-21T18:58:29;4.63;;;2.60;;
18677;SDS011;9469;51.114;13.914;2022-08-21T19:03:37;5.93;;;2.63;;
18677;SDS011;9469;51.114;13.914;2022-08-21T19:08:43;7.00;;;2.60;;
18677;SDS011;9469;51.114;13.914;2022-08-21T19:13:48;4.53;;;2.40;;
18677;SDS011;9469;51.114;13.914;2022-08-21T19:18:58;4.03;;;2.43;;
18677;SDS011;9469;51.114;13.914;2022-08-21T19:24:05;4.40;;;2.30;;
18677;SDS011;9469;51.114;13.914;2022-08-21T19:29:18;4.13;;;2.67;;
18677;SDS011;9469;51.114;13.914;2022-08-21T19:34:38;6.70;;;2.67;;
18677;SDS011;9469;51.114;13.914;2022-08-21T19:39:47;5.57;;;2.60;;
18677;SDS011;9469;51.114;13.914;2022-08-21T19:44:53;10.57;;;3.00;;
18677;SDS011;9469;51.114;13.914;2022-08-21T19:50:03;9.10;;;3.80;;
18677;SDS011;9469;51.114;13.914;2022-08-21T19:55:30;9.87;;;4.03;;
18677;SDS011;9469;51.114;13.914;2022-08-21T20:00:35;10.67;;;4.47;;
18677;SDS011;9469;51.114;13.914;2022-08-21T20:05:47;8.47;;;4.27;;
18677;SDS011;9469;51.114;13.914;2022-08-21T20:10:55;9.23;;;4.97;;
18677;SDS011;9469;51.114;13.914;2022-08-21T20:16:05;5.33;;;4.03;;
18677;SDS011;9469;51.114;13.914;2022-08-21T20:21:14;12.67;;;4.93;;
18677;SDS011;9469;51.114;13.914;2022-08-21T20:26:21;9.73;;;4.77;;
18677;SDS011;9469;51.114;13.914;2022-08-21T20:31:27;7.57;;;4.20;;
18677;SDS011;9469;51.114;13.914;2022-08-21T20:36:37;6.40;;;3.90;;
18677;SDS011;9469;51.114;13.914;2022-08-21T20:41:44;7.20;;;3.60;;
18677;SDS011;9469;51.114;13.914;2022-08-21T20:46:49;6.27;;;3.90;;
18677;SDS011;9469;51.114;13.914;2022-08-21T20:52:00;6.53;;;3.67;;
18677;SDS011;9469;51.114;13.914;2022-08-21T20:57:09;7.80;;;3.43;;
18677;SDS011;9469;51.114;13.914;2022-08-21T21:02:35;5.60;;;3.20;;
18677;SDS011;9469;51.114;13.914;2022-08-21T21:08:11;4.53;;;3.27;;
18677;SDS011;9469;51.114;13.914;2022-08-21T21:13:26;12.87;;;3.70;;
18677;SDS011;9469;51.114;13.914;2022-08-21T21:18:36;7.07;;;3.33;;
18677;SDS011;9469;51.114;13.914;2022-08-21T21:23:57;7.43;;;3.60;;
18677;SDS011;9469;51.114;13.914;2022-08-21T21:29:07;4.33;;;3.00;;
18677;SDS011;9469;51.114;13.914;2022-08-21T21:34:17;5.20;;;3.30;;
18677;SDS011;9469;51.114;13.914;2022-08-21T21:39:27;6.23;;;3.30;;
18677;SDS011;9469;51.114;13.914;2022-08-21T21:44:42;6.90;;;3.70;;
18677;SDS011;9469;51.114;13.914;2022-08-21T21:50:03;10.70;;;3.90;;
18677;SDS011;9469;51.114;13.914;2022-08-21T21:55:31;5.40;;;3.90;;
18677;SDS011;9469;51.114;13.914;2022-08-21T22:00:52;4.80;;;3.43;;
18677;SDS011;9469;51.114;13.914;2022-08-21T22:06:05;7.77;;;3.50;;
18677;SDS011;9469;51.114;13.914;2022-08-21T22:11:19;4.80;;;3.17;;
18677;SDS011;9469;51.114;13.914;2022-08-21T22:16:35;6.27;;;3.30;;
18677;SDS011;9469;51.114;13.914;2022-08-21T22:21:44;6.87;;;3.80;;
18677;SDS011;9469;51.114;13.914;2022-08-21T22:26:57;6.67;;;3.23;;
18677;SDS011;9469;51.114;13.914;2022-08-21T22:32:07;7.10;;;4.77;;
18677;SDS011;9469;51.114;13.914;2022-08-21T22:37:15;7.90;;;4.00;;
18677;SDS011;9469;51.114;13.914;2022-08-21T22:42:24;5.67;;;3.70;;
18677;SDS011;9469;51.114;13.914;2022-08-21T22:47:33;5.37;;;3.73;;
18677;SDS011;9469;51.114;13.914;2022-08-21T22:52:44;5.63;;;3.57;;
18677;SDS011;9469;51.114;13.914;2022-08-21T22:58:04;4.87;;;3.17;;
18677;SDS011;9469;51.114;13.914;2022-08-21T23:03:16;5.17;;;3.70;;
18677;SDS011;9469;51.114;13.914;2022-08-21T23:08:48;12.43;;;3.23;;
18677;SDS011;9469;51.114;13.914;2022-08-21T23:13:55;4.20;;;3.60;;
18677;SDS011;9469;51.114;13.914;2022-08-21T23:19:02;8.30;;;3.50;;
18677;SDS011;9469;51.114;13.914;2022-08-21T23:24:26;4.83;;;3.90;;
18677;SDS011;9469;51.114;13.914;2022-08-21T23:30:07;7.17;;;3.67;;
18677;SDS011;9469;51.114;13.914;2022-08-21T23:35:20;3.47;;;3.07;;
18677;SDS011;9469;51.114;13.914;2022-08-21T23:40:49;5.13;;;3.93;;
18677;SDS011;9469;51.114;13.914;2022-08-21T23:46:11;6.80;;;3.60;;
18677;SDS011;9469;51.114;13.914;2022-08-21T23:51:36;3.83;;;3.20;;
18677;SDS011;9469;51.114;13.914;2022-08-21T23:56:58;5.97;;;3.40;;
